Time;durP1;ratioP1;P1;durP2;ratioP2;P2;SDS_P1;SDS_P2;PMS_P1;PMS_P2;Temp;Humidity;BMP_temperature;BMP_pressure;BME280_temperature;BME280_humidity;BME280_pressure;Samples;Min_cycle;Max_cycle;Signal;HPM_P1;HPM_P2
2022/07/16 00:03:47;;;;;;;2.77;2.67;;;20.60;95.60;;;;;;5086096;28;20560;-53
2022/07/16 00:06:14;;;;;;;4.87;3.80;;;20.60;95.70;;;;;;5087393;28;20762;-53
2022/07/16 00:08:41;;;;;;;2.60;2.40;;;20.60;95.70;;;;;;5067416;28;20214;-53
2022/07/16 00:11:08;;;;;;;2.37;2.23;;;20.50;96.00;;;;;;5067745;28;20600;-53
2022/07/16 00:13:35;;;;;;;2.67;2.57;;;20.50;95.80;;;;;;5067791;28;20291;-53
2022/07/16 00:16:02;;;;;;;3.23;2.57;;;20.50;95.80;;;;;;5079535;28;20200;-54
2022/07/16 00:21:14;;;;;;;2.70;2.57;;;20.50;95.90;;;;;;5084228;28;20203;-54
2022/07/16 00:23:41;;;;;;;2.83;2.47;;;20.40;95.70;;;;;;5092105;28;20618;-54
2022/07/16 00:26:08;;;;;;;2.67;2.47;;;20.40;95.90;;;;;;5088539;28;20575;-53
2022/07/16 00:28:35;;;;;;;2.23;2.10;;;20.40;95.60;;;;;;5090156;28;20216;-53
2022/07/16 00:31:02;;;;;;;2.57;2.37;;;20.30;95.80;;;;;;5090723;28;20200;-53
2022/07/16 00:33:29;;;;;;;2.50;2.40;;;20.30;96.00;;;;;;5088940;28;20257;-54
2022/07/16 00:35:56;;;;;;;4.27;2.73;;;20.30;96.00;;;;;;5089869;28;20254;-54
2022/07/16 00:38:25;;;;;;;3.00;2.70;;;20.30;95.90;;;;;;5091423;28;20196;-53
2022/07/16 00:40:52;;;;;;;2.63;2.53;;;20.30;95.60;;;;;;5085049;28;20338;-53
2022/07/16 00:43:20;;;;;;;3.07;2.87;;;20.20;96.10;;;;;;5090398;28;20634;-53
2022/07/16 00:45:47;;;;;;;2.47;2.30;;;20.20;96.00;;;;;;5089101;28;20201;-53
2022/07/16 00:48:15;;;;;;;2.47;2.37;;;20.20;96.10;;;;;;5091730;28;20265;-53
2022/07/16 00:50:42;;;;;;;3.93;2.70;;;20.20;95.80;;;;;;5088604;28;20243;-53
2022/07/16 00:53:13;;;;;;;3.10;3.00;;;20.20;95.50;;;;;;5080160;28;20217;-54
2022/07/16 00:55:41;;;;;;;4.17;2.33;;;20.20;95.80;;;;;;5090590;28;20607;-53
2022/07/16 00:58:08;;;;;;;6.30;2.20;;;20.10;95.50;;;;;;5088714;28;20228;-53
2022/07/16 01:00:35;;;;;;;2.03;1.93;;;20.10;95.90;;;;;;5089891;28;20208;-53
2022/07/16 01:03:06;;;;;;;2.70;2.60;;;20.00;95.90;;;;;;5090664;28;20196;-54
2022/07/16 01:05:33;;;;;;;2.07;1.97;;;20.00;95.70;;;;;;5087710;28;20294;-54
2022/07/16 01:08:01;;;;;;;2.73;2.60;;;20.00;95.60;;;;;;5091331;28;20227;-53
2022/07/16 01:10:29;;;;;;;2.70;2.50;;;20.00;95.90;;;;;;5091269;28;20625;-53
2022/07/16 01:13:00;;;;;;;2.27;2.17;;;19.90;95.90;;;;;;5089741;28;20251;-54
2022/07/16 01:15:27;;;;;;;2.23;2.10;;;20.00;95.90;;;;;;5090641;28;20296;-53
2022/07/16 01:17:54;;;;;;;4.90;2.20;;;20.00;96.00;;;;;;5089658;28;20701;-53
2022/07/16 01:20:21;;;;;;;2.50;2.40;;;19.90;96.00;;;;;;5090353;28;20200;-54
2022/07/16 01:22:49;;;;;;;2.63;2.53;;;19.90;95.60;;;;;;5087418;28;20668;-54
2022/07/16 01:25:18;;;;;;;2.17;2.07;;;19.90;95.90;;;;;;5084503;28;20223;-54
2022/07/16 01:27:45;;;;;;;3.00;2.63;;;19.80;96.10;;;;;;5089937;28;20251;-53
2022/07/16 01:30:12;;;;;;;2.80;2.67;;;19.90;95.80;;;;;;5085914;28;20560;-53
2022/07/16 01:32:39;;;;;;;2.57;2.47;;;19.90;95.40;;;;;;5090400;28;20212;-53
2022/07/16 01:35:08;;;;;;;2.00;1.80;;;19.80;96.00;;;;;;5090660;28;20200;-53
2022/07/16 01:37:35;;;;;;;4.13;2.50;;;19.70;96.10;;;;;;5090239;28;20285;-54
2022/07/16 01:40:02;;;;;;;2.60;2.50;;;19.70;96.40;;;;;;5084631;28;20296;-53
2022/07/16 01:42:30;;;;;;;2.30;2.10;;;19.60;96.60;;;;;;5085341;28;20197;-53
2022/07/16 01:44:57;;;;;;;3.60;2.37;;;19.50;96.40;;;;;;5091040;28;20249;-53
2022/07/16 01:47:24;;;;;;;2.47;2.33;;;19.50;96.50;;;;;;5086737;28;20304;-53
2022/07/16 01:49:51;;;;;;;2.70;2.20;;;19.50;96.70;;;;;;5092236;28;20196;-54
2022/07/16 01:52:22;;;;;;;3.77;2.10;;;19.50;96.80;;;;;;5090436;28;20333;-53
2022/07/16 01:54:50;;;;;;;2.90;2.80;;;19.50;97.00;;;;;;5094279;28;20258;-53
2022/07/16 01:57:18;;;;;;;2.50;2.10;;;19.50;97.00;;;;;;5090957;28;20273;-54
2022/07/16 01:59:46;;;;;;;2.40;2.30;;;19.50;97.10;;;;;;5089719;28;20243;-54
2022/07/16 02:02:14;;;;;;;2.60;2.47;;;19.50;97.60;;;;;;5094174;28;20192;-54
2022/07/16 02:04:43;;;;;;;2.43;2.33;;;19.40;97.70;;;;;;5093205;28;20201;-51
2022/07/16 02:07:10;;;;;;;3.07;2.60;;;19.50;97.60;;;;;;5088499;28;20216;-54
2022/07/16 02:09:37;;;;;;;2.30;2.20;;;19.50;97.60;;;;;;5094009;28;20235;-54
2022/07/16 02:12:04;;;;;;;2.80;2.43;;;19.50;97.70;;;;;;5090403;28;20216;-54
2022/07/16 02:14:31;;;;;;;2.40;2.30;;;19.40;97.40;;;;;;5090302;28;20197;-53
2022/07/16 02:16:59;;;;;;;5.43;2.43;;;19.30;97.40;;;;;;5091881;28;20224;-54
2022/07/16 02:19:26;;;;;;;2.67;2.47;;;19.30;97.50;;;;;;5094362;28;20231;-53
2022/07/16 02:21:53;;;;;;;3.40;2.80;;;19.30;97.30;;;;;;5093200;28;20200;-53
2022/07/16 02:24:20;;;;;;;4.67;2.83;;;19.40;97.60;;;;;;5092175;28;20235;-54
2022/07/16 02:26:47;;;;;;;2.80;2.70;;;19.40;97.70;;;;;;5088467;28;20307;-53
2022/07/16 02:29:14;;;;;;;3.00;2.90;;;19.30;97.80;;;;;;5092384;28;20291;-53
2022/07/16 02:31:41;;;;;;;2.97;2.73;;;19.20;98.00;;;;;;5093348;28;20196;-53
2022/07/16 02:34:10;;;;;;;4.47;3.00;;;19.20;98.20;;;;;;5092689;28;20200;-54
2022/07/16 02:36:37;;;;;;;3.23;2.80;;;19.20;98.30;;;;;;5093173;28;20224;-54
2022/07/16 02:39:04;;;;;;;3.07;2.77;;;19.20;98.40;;;;;;5093381;28;20253;-53
2022/07/16 02:41:31;;;;;;;3.30;3.00;;;19.20;98.50;;;;;;5088775;28;20258;-54
2022/07/16 02:43:58;;;;;;;2.83;2.73;;;19.10;98.50;;;;;;5093914;28;20250;-53
2022/07/16 02:46:25;;;;;;;3.47;3.17;;;19.10;98.60;;;;;;5088036;28;20648;-53
2022/07/16 02:48:52;;;;;;;4.93;3.20;;;19.10;98.70;;;;;;5094044;28;20196;-54
2022/07/16 02:51:20;;;;;;;2.90;2.60;;;19.10;98.80;;;;;;5088723;28;20231;-54
2022/07/16 02:53:47;;;;;;;3.23;3.00;;;19.10;98.90;;;;;;5089960;28;20680;-53
2022/07/16 02:56:14;;;;;;;3.33;3.13;;;18.90;99.00;;;;;;5092728;28;20707;-54
2022/07/16 02:58:41;;;;;;;2.80;2.70;;;18.90;99.20;;;;;;5092812;28;20197;-54
2022/07/16 03:01:09;;;;;;;2.83;2.73;;;18.90;99.30;;;;;;5089670;28;20201;-53
2022/07/16 03:03:35;;;;;;;4.93;3.20;;;18.90;99.40;;;;;;5091781;28;20192;-54
2022/07/16 03:06:02;;;;;;;3.90;3.60;;;18.80;99.60;;;;;;5090149;28;20197;-53
2022/07/16 03:08:31;;;;;;;2.90;2.70;;;18.70;99.70;;;;;;5092655;28;20250;-53
2022/07/16 03:10:58;;;;;;;3.73;3.43;;;18.70;99.90;;;;;;5091842;28;20715;-53
2022/07/16 03:13:25;;;;;;;3.33;3.00;;;18.70;99.90;;;;;;5088821;28;20316;-54
2022/07/16 03:15:53;;;;;;;3.10;2.90;;;18.70;99.90;;;;;;5092635;28;20803;-53
2022/07/16 03:18:23;;;;;;;2.93;2.83;;;18.60;99.90;;;;;;5093657;28;20202;-53
2022/07/16 03:20:50;;;;;;;2.90;2.70;;;18.60;99.90;;;;;;5091037;28;20291;-53
2022/07/16 03:23:21;;;;;;;3.27;3.07;;;18.60;99.90;;;;;;5087813;28;21315;-54
2022/07/16 03:25:49;;;;;;;3.43;3.17;;;18.50;99.90;;;;;;5092327;28;20543;-53
2022/07/16 03:28:19;;;;;;;3.37;3.00;;;18.50;99.90;;;;;;5091416;28;20206;-53
2022/07/16 03:30:46;;;;;;;3.13;2.93;;;18.40;99.90;;;;;;5092191;28;20789;-54
2022/07/16 03:33:16;;;;;;;5.50;3.13;;;18.40;99.90;;;;;;5088253;28;20321;-53
2022/07/16 03:35:43;;;;;;;3.37;3.17;;;18.40;99.90;;;;;;5084033;28;20250;-53
2022/07/16 03:40:56;;;;;;;3.27;2.97;;;18.40;99.90;;;;;;5092465;28;20225;-54
2022/07/16 03:43:23;;;;;;;2.83;2.70;;;18.30;99.90;;;;;;5092219;28;20633;-53
2022/07/16 03:45:50;;;;;;;3.50;3.07;;;18.20;99.90;;;;;;5087891;28;20231;-53
2022/07/16 03:48:20;;;;;;;3.70;3.40;;;18.20;99.90;;;;;;5091390;28;20257;-53
2022/07/16 03:50:47;;;;;;;4.53;3.30;;;18.10;99.90;;;;;;5091226;28;20265;-53
2022/07/16 03:53:14;;;;;;;3.43;3.23;;;18.00;99.90;;;;;;5091846;28;20208;-53
2022/07/16 03:55:41;;;;;;;2.70;2.60;;;18.00;99.90;;;;;;5091407;28;20208;-53
2022/07/16 03:58:12;;;;;;;2.87;2.73;;;18.00;99.90;;;;;;5087917;22;20230;-51
2022/07/16 04:00:39;;;;;;;3.53;3.03;;;18.00;99.90;;;;;;5050828;28;20232;-52
2022/07/16 04:03:09;;;;;;;3.17;2.97;;;18.00;99.90;;;;;;5049682;28;20611;-52
2022/07/16 04:05:36;;;;;;;3.53;3.33;;;18.10;99.90;;;;;;5048216;28;20198;-52
2022/07/16 04:08:03;;;;;;;4.23;4.00;;;18.20;99.90;;;;;;5051952;28;20666;-52
2022/07/16 04:10:30;;;;;;;3.77;3.37;;;18.30;99.90;;;;;;5049977;28;20256;-51
2022/07/16 04:12:57;;;;;;;3.37;3.17;;;18.30;99.90;;;;;;5049862;28;20310;-52
2022/07/16 04:15:25;;;;;;;2.93;2.77;;;18.30;99.90;;;;;;5052594;28;20229;-51
2022/07/16 04:17:52;;;;;;;3.33;3.13;;;18.40;99.90;;;;;;5050815;28;20276;-51
2022/07/16 04:20:20;;;;;;;4.20;3.90;;;18.50;99.90;;;;;;5047969;28;20251;-51
2022/07/16 04:22:46;;;;;;;4.00;3.80;;;18.50;99.90;;;;;;5050198;28;20190;-51
2022/07/16 04:25:14;;;;;;;3.97;3.70;;;18.60;99.90;;;;;;5051357;28;20197;-52
2022/07/16 04:27:41;;;;;;;3.33;3.13;;;18.60;99.90;;;;;;5050972;28;20301;-52
2022/07/16 04:30:09;;;;;;;3.00;2.90;;;18.60;99.90;;;;;;5052163;28;20237;-52
2022/07/16 04:32:38;;;;;;;3.63;3.53;;;18.70;99.90;;;;;;5050165;28;20222;-52
2022/07/16 04:35:07;;;;;;;5.83;3.97;;;18.70;99.90;;;;;;5050428;28;20197;-51
2022/07/16 04:37:34;;;;;;;4.00;3.67;;;18.80;99.90;;;;;;5051458;28;20358;-51
2022/07/16 04:40:02;;;;;;;3.77;3.40;;;18.80;99.90;;;;;;5052060;28;20197;-51
2022/07/16 04:42:29;;;;;;;3.40;3.10;;;18.80;99.90;;;;;;5050730;28;20210;-52
2022/07/16 04:44:56;;;;;;;3.70;3.50;;;18.70;99.90;;;;;;5051915;28;20198;-51
2022/07/16 04:47:23;;;;;;;3.70;3.50;;;18.70;99.90;;;;;;5049500;28;20218;-51
2022/07/16 04:49:51;;;;;;;4.37;4.17;;;18.80;99.90;;;;;;5051978;28;20618;-51
2022/07/16 04:52:18;;;;;;;3.50;3.40;;;18.90;99.90;;;;;;5050654;28;20264;-52
2022/07/16 04:54:45;;;;;;;4.20;4.00;;;19.00;99.90;;;;;;5051840;28;20202;-51
2022/07/16 04:57:12;;;;;;;3.50;3.40;;;19.20;99.90;;;;;;5048606;28;20272;-51
2022/07/16 04:59:39;;;;;;;7.20;4.20;;;19.40;99.90;;;;;;5048620;28;20286;-52
2022/07/16 05:04:52;;;;;;;4.00;3.80;;;19.60;99.90;;;;;;5048610;28;20568;-52
2022/07/16 05:07:19;;;;;;;5.00;4.37;;;19.80;99.90;;;;;;5050405;28;20224;-52
2022/07/16 05:09:46;;;;;;;4.93;4.53;;;20.10;99.90;;;;;;5049209;28;20239;-52
2022/07/16 05:12:13;;;;;;;3.50;3.30;;;20.40;99.90;;;;;;5046123;28;20668;-51
2022/07/16 05:14:40;;;;;;;3.60;3.37;;;21.00;99.90;;;;;;5050746;28;20300;-52
2022/07/16 05:17:06;;;;;;;4.23;3.70;;;21.50;99.90;;;;;;5049954;28;20770;-52
2022/07/16 05:19:33;;;;;;;4.50;4.10;;;21.70;99.90;;;;;;5049762;28;20209;-51
2022/07/16 05:22:02;;;;;;;3.87;3.43;;;22.40;99.90;;;;;;5049061;28;20198;-51
2022/07/16 05:24:29;;;;;;;3.80;3.50;;;23.10;99.30;;;;;;5046794;28;20205;-52
2022/07/16 05:26:56;;;;;;;4.73;3.93;;;23.80;99.60;;;;;;5048120;28;20663;-51
2022/07/16 05:29:23;;;;;;;5.30;2.93;;;24.40;98.10;;;;;;5051718;28;20244;-51
2022/07/16 05:31:50;;;;;;;2.60;2.50;;;24.70;96.80;;;;;;5050112;28;20260;-52
2022/07/16 05:34:17;;;;;;;4.73;3.03;;;24.80;96.10;;;;;;5051104;28;20254;-51
2022/07/16 05:36:44;;;;;;;3.57;3.33;;;24.90;96.60;;;;;;5045591;28;20664;-51
2022/07/16 05:39:12;;;;;;;3.00;2.80;;;25.00;96.10;;;;;;5049508;28;20202;-51
2022/07/16 05:41:39;;;;;;;3.30;3.10;;;25.40;95.60;;;;;;5050879;28;20206;-51
2022/07/16 05:44:06;;;;;;;3.53;3.20;;;25.70;96.20;;;;;;5050854;28;20269;-52
2022/07/16 05:46:33;;;;;;;3.47;3.20;;;26.10;95.50;;;;;;5048429;28;20205;-52
2022/07/16 05:49:00;;;;;;;3.27;2.67;;;26.10;93.80;;;;;;5048936;28;20653;-52
2022/07/16 05:51:27;;;;;;;3.60;2.60;;;25.70;94.60;;;;;;5048556;28;20629;-51
2022/07/16 05:53:54;;;;;;;3.23;3.03;;;25.90;94.50;;;;;;5049547;28;20253;-51
2022/07/16 05:56:22;;;;;;;3.10;2.13;;;26.20;94.20;;;;;;5047666;28;20214;-52
2022/07/16 05:58:49;;;;;;;2.63;2.53;;;26.70;93.50;;;;;;5045153;28;20316;-51
2022/07/16 06:01:16;;;;;;;3.10;2.80;;;26.50;93.50;;;;;;5039946;28;20198;-52
2022/07/16 06:03:43;;;;;;;3.70;2.80;;;26.10;93.50;;;;;;5041097;28;20263;-51
2022/07/16 06:06:11;;;;;;;3.70;2.87;;;25.70;93.80;;;;;;5039922;28;20252;-52
2022/07/16 06:08:38;;;;;;;3.30;3.10;;;25.80;95.10;;;;;;5041197;28;20229;-51
2022/07/16 06:11:05;;;;;;;4.10;2.67;;;26.00;94.50;;;;;;5040979;28;20202;-51
2022/07/16 06:13:33;;;;;;;2.40;2.30;;;26.20;94.60;;;;;;5041099;28;20218;-52
2022/07/16 06:16:02;;;;;;;2.90;2.70;;;26.40;94.80;;;;;;5042275;28;20201;-52
2022/07/16 06:18:29;;;;;;;3.80;3.50;;;25.90;94.50;;;;;;5041742;28;20222;-51
2022/07/16 06:20:56;;;;;;;3.83;3.20;;;25.70;94.00;;;;;;5047856;28;20208;-52
2022/07/16 06:23:23;;;;;;;4.80;3.90;;;26.00;94.70;;;;;;5043201;28;20760;-52
2022/07/16 06:25:50;;;;;;;3.30;3.10;;;26.50;93.70;;;;;;5039822;28;20256;-52
2022/07/16 06:28:17;;;;;;;5.67;3.33;;;26.80;94.70;;;;;;5040024;28;20225;-53
2022/07/16 06:30:45;;;;;;;3.03;2.73;;;27.10;93.20;;;;;;5040710;28;20198;-53
2022/07/16 06:33:15;;;;;;;3.90;3.50;;;26.70;93.20;;;;;;5039855;28;20234;-52
2022/07/16 06:35:42;;;;;;;2.90;2.70;;;27.00;92.40;;;;;;5039527;28;20211;-52
2022/07/16 06:38:09;;;;;;;3.30;3.00;;;27.20;93.30;;;;;;5047027;28;20221;-51
2022/07/16 06:40:36;;;;;;;2.80;2.67;;;27.60;91.30;;;;;;5043661;28;20197;-51
2022/07/16 06:43:03;;;;;;;3.73;2.80;;;27.70;91.20;;;;;;5043694;28;20210;-51
2022/07/16 06:45:30;;;;;;;2.90;2.80;;;28.00;92.10;;;;;;5046348;28;20205;-53
2022/07/16 06:47:59;;;;;;;4.10;3.70;;;28.20;91.00;;;;;;5044023;28;20621;-51
2022/07/16 06:50:26;;;;;;;3.67;3.27;;;28.20;91.80;;;;;;5044414;28;20194;-51
2022/07/16 06:52:53;;;;;;;2.35;2.25;;;28.50;91.60;;;;;;5048688;28;20663;-53
2022/07/16 06:55:20;;;;;;;4.50;2.92;;;28.90;90.40;;;;;;5047264;28;20729;-52
2022/07/16 06:57:47;;;;;;;2.40;2.35;;;29.40;90.00;;;;;;5044410;28;20312;-53
2022/07/16 07:00:15;;;;;;;3.30;3.00;;;30.10;90.00;;;;;;5050338;28;20197;-52
2022/07/16 07:02:42;;;;;;;3.83;2.85;;;29.70;87.20;;;;;;5043584;28;20201;-51
2022/07/16 07:05:11;;;;;;;3.00;2.83;;;29.60;88.30;;;;;;5043579;28;20197;-51
2022/07/16 07:07:38;;;;;;;4.80;2.70;;;29.50;89.20;;;;;;5046076;28;20214;-51
2022/07/16 07:10:06;;;;;;;3.00;2.75;;;29.50;88.30;;;;;;5047318;28;20224;-53
2022/07/16 07:12:34;;;;;;;2.60;2.42;;;30.20;89.90;;;;;;5048637;28;20690;-53
2022/07/16 07:15:02;;;;;;;3.45;2.53;;;30.50;88.00;;;;;;5050273;28;20572;-52
2022/07/16 07:17:29;;;;;;;2.80;2.63;;;30.70;87.70;;;;;;5047069;28;20267;-52
2022/07/16 07:19:56;;;;;;;3.40;2.53;;;30.70;88.80;;;;;;5050714;28;20205;-52
2022/07/16 07:22:24;;;;;;;2.38;2.25;;;30.60;85.30;;;;;;5051645;28;20210;-52
2022/07/16 07:24:51;;;;;;;2.50;2.40;;;30.50;82.30;;;;;;5050363;28;20240;-53
2022/07/16 07:27:19;;;;;;;3.28;2.95;;;30.90;84.70;;;;;;5051038;28;20230;-51
2022/07/16 07:29:46;;;;;;;3.33;2.63;;;30.90;81.10;;;;;;5050049;28;20205;-52
2022/07/16 07:32:14;;;;;;;3.88;3.67;;;31.40;83.20;;;;;;5051537;28;20225;-52
2022/07/16 07:34:41;;;;;;;3.00;2.80;;;31.10;79.70;;;;;;5053397;28;20301;-51
2022/07/16 07:37:08;;;;;;;4.10;3.80;;;30.60;84.40;;;;;;5052295;28;20643;-51
2022/07/16 07:39:36;;;;;;;2.67;2.58;;;30.90;81.80;;;;;;5047211;28;20198;-51
2022/07/16 07:42:04;;;;;;;2.78;2.58;;;30.60;80.40;;;;;;5050870;28;20626;-53
2022/07/16 07:44:31;;;;;;;2.75;2.65;;;31.00;81.00;;;;;;5052983;28;20243;-51
2022/07/16 07:46:58;;;;;;;3.10;2.83;;;29.80;83.70;;;;;;5048297;28;20631;-51
2022/07/16 07:49:25;;;;;;;4.05;2.80;;;30.10;85.00;;;;;;5048836;28;20292;-52
2022/07/16 07:51:54;;;;;;;3.75;3.13;;;30.50;82.80;;;;;;5050562;28;20209;-51
2022/07/16 07:54:21;;;;;;;4.93;3.28;;;30.90;80.20;;;;;;5050253;28;20214;-52
2022/07/16 07:56:49;;;;;;;4.53;3.55;;;31.00;80.50;;;;;;5051626;28;20194;-51
2022/07/16 07:59:16;;;;;;;3.13;2.92;;;29.70;82.80;;;;;;5050823;28;20343;-52
2022/07/16 08:01:44;;;;;;;3.92;3.67;;;30.10;85.10;;;;;;5050871;28;20213;-51
2022/07/16 08:04:11;;;;;;;5.07;3.42;;;30.70;79.50;;;;;;5051287;28;20190;-53
2022/07/16 08:06:38;;;;;;;2.72;2.63;;;31.10;79.90;;;;;;5050441;28;20244;-52
2022/07/16 08:09:05;;;;;;;5.35;3.47;;;31.30;79.70;;;;;;5051000;28;20229;-51
2022/07/16 08:11:32;;;;;;;3.70;3.38;;;30.40;80.70;;;;;;5050678;28;20252;-52
2022/07/16 08:14:01;;;;;;;2.95;2.65;;;29.40;81.50;;;;;;5052544;28;20210;-51
2022/07/16 08:16:28;;;;;;;3.30;3.03;;;30.40;83.90;;;;;;5048908;28;20202;-52
2022/07/16 08:18:55;;;;;;;2.97;2.70;;;30.80;79.60;;;;;;5048544;28;20639;-52
2022/07/16 08:21:22;;;;;;;2.38;2.28;;;31.40;82.50;;;;;;5050387;28;20204;-53
2022/07/16 08:26:33;;;;;;;3.90;2.50;;;32.10;77.60;;;;;;5052426;28;20204;-52
2022/07/16 08:29:02;;;;;;;3.42;3.15;;;31.90;80.40;;;;;;5050088;28;20688;-53
2022/07/16 08:31:29;;;;;;;3.42;3.22;;;32.20;79.60;;;;;;5048661;28;20207;-52
2022/07/16 08:33:56;;;;;;;3.90;3.03;;;32.00;78.10;;;;;;5042299;28;20217;-52
2022/07/16 08:36:23;;;;;;;2.67;2.58;;;32.10;82.10;;;;;;5051057;28;20206;-53
2022/07/16 08:38:50;;;;;;;3.72;3.55;;;32.20;79.90;;;;;;5052257;28;20275;-52
2022/07/16 08:41:18;;;;;;;2.80;2.70;;;32.20;79.40;;;;;;5048748;28;20194;-52
2022/07/16 08:43:45;;;;;;;4.80;3.00;;;31.80;77.70;;;;;;5050323;28;20202;-52
2022/07/16 08:46:15;;;;;;;3.45;3.22;;;32.20;78.20;;;;;;5051869;28;20582;-52
2022/07/16 08:48:43;;;;;;;3.05;2.85;;;31.80;81.70;;;;;;5050284;28;20244;-52
2022/07/16 08:51:11;;;;;;;3.65;3.05;;;31.70;80.20;;;;;;5050778;28;20284;-52
2022/07/16 08:53:40;;;;;;;3.25;2.88;;;31.50;77.80;;;;;;5050409;28;20198;-52
2022/07/16 08:56:08;;;;;;;3.45;3.15;;;31.50;78.80;;;;;;5051805;28;20194;-53
2022/07/16 08:58:36;;;;;;;3.50;3.05;;;31.00;79.40;;;;;;5051673;28;20229;-52
2022/07/16 09:01:03;;;;;;;2.83;2.72;;;30.80;81.00;;;;;;5050083;28;20244;-52
2022/07/16 09:03:32;;;;;;;4.25;3.20;;;30.30;81.70;;;;;;5049032;28;20204;-52
2022/07/16 09:06:00;;;;;;;4.00;3.30;;;29.90;81.20;;;;;;5050398;28;20288;-53
2022/07/16 09:08:30;;;;;;;8.65;3.30;;;29.50;81.50;;;;;;5051829;28;20229;-53
2022/07/16 09:11:17;;;;;;;6.65;2.75;;;29.50;86.20;;;;;;5051838;28;20213;-53
2022/07/16 09:14:05;;;;;;;2.97;2.80;;;30.50;87.50;;;;;;5046400;28;20266;-52
2022/07/16 09:16:33;;;;;;;5.00;3.70;;;30.60;82.20;;;;;;5045852;28;20263;-52
2022/07/16 09:19:08;;;;;;;3.15;3.00;;;30.80;83.50;;;;;;5051010;28;20221;-53
2022/07/16 09:21:36;;;;;;;2.70;2.60;;;30.40;80.00;;;;;;5046860;28;20236;-52
2022/07/16 09:24:04;;;;;;;3.22;3.03;;;30.80;82.80;;;;;;5048872;28;20193;-51
2022/07/16 09:26:31;;;;;;;10.07;4.10;;;30.40;84.80;;;;;;5051754;28;20201;-52
2022/07/16 09:29:03;;;;;;;2.95;2.83;;;30.20;84.00;;;;;;5050668;28;20229;-52
2022/07/16 09:31:39;;;;;;;3.88;3.67;;;30.30;82.40;;;;;;5051053;28;20201;-52
2022/07/16 09:34:09;;;;;;;3.72;3.15;;;30.20;79.90;;;;;;5049546;28;20209;-52
2022/07/16 09:36:37;;;;;;;2.95;2.85;;;30.20;83.40;;;;;;5051391;28;20202;-51
2022/07/16 09:39:06;;;;;;;3.92;3.60;;;30.10;83.90;;;;;;5051475;28;20676;-52
2022/07/16 09:41:43;;;;;;;2.90;2.70;;;29.40;83.50;;;;;;5050278;28;20201;-52
2022/07/16 09:44:15;;;;;;;2.67;2.47;;;29.60;86.40;;;;;;5042228;28;20668;-53
2022/07/16 09:46:57;;;;;;;3.00;2.80;;;30.50;88.50;;;;;;5048890;28;20233;-52
2022/07/16 09:49:27;;;;;;;3.17;2.92;;;30.70;83.90;;;;;;5049229;28;20220;-52
2022/07/16 09:51:54;;;;;;;5.22;3.72;;;30.80;87.10;;;;;;5050314;28;20225;-53
2022/07/16 09:54:30;;;;;;;3.85;3.40;;;30.90;81.00;;;;;;5050270;28;20222;-52
2022/07/16 09:59:24;;;;;;;3.50;3.10;;;31.00;82.70;;;;;;5070881;22;20731;-54
2022/07/16 10:01:51;;;;;;;3.20;3.10;;;30.70;82.00;;;;;;5050069;28;20198;-54
2022/07/16 10:04:20;;;;;;;3.08;2.88;;;31.30;83.90;;;;;;5037779;28;20202;-54
2022/07/16 10:06:49;;;;;;;5.30;3.38;;;31.70;83.90;;;;;;5050254;28;20286;-54
2022/07/16 10:09:16;;;;;;;3.78;3.47;;;31.60;83.30;;;;;;5050404;28;20276;-54
2022/07/16 10:11:44;;;;;;;2.90;2.72;;;31.60;81.40;;;;;;5052657;28;20205;-54
2022/07/16 10:14:11;;;;;;;3.00;2.80;;;31.20;80.60;;;;;;5042631;28;20242;-53
2022/07/16 10:16:40;;;;;;;5.25;3.40;;;31.00;84.30;;;;;;5041963;28;20274;-54
2022/07/16 10:19:08;;;;;;;2.90;2.80;;;30.70;82.90;;;;;;5034708;28;20305;-54
2022/07/16 10:21:36;;;;;;;3.35;3.05;;;30.60;84.00;;;;;;5028790;28;20199;-53
2022/07/16 10:24:07;;;;;;;3.42;3.20;;;30.40;80.90;;;;;;5033369;28;20283;-53
2022/07/16 10:26:35;;;;;;;3.22;3.00;;;30.20;83.70;;;;;;5036463;28;20236;-54
2022/07/16 10:29:03;;;;;;;5.22;3.05;;;30.10;83.00;;;;;;5035320;28;20242;-54
2022/07/16 10:31:36;;;;;;;3.22;3.03;;;30.20;88.80;;;;;;5033753;28;20205;-54
2022/07/16 10:34:36;;;;;;;3.88;3.58;;;30.40;84.70;;;;;;5040896;28;20201;-54
2022/07/16 10:37:06;;;;;;;3.95;3.05;;;30.20;81.90;;;;;;5042071;28;20563;-54
2022/07/16 10:39:34;;;;;;;3.03;2.83;;;30.60;84.40;;;;;;5034216;28;20712;-54
2022/07/16 10:42:03;;;;;;;3.72;3.42;;;30.50;85.60;;;;;;5033496;28;20292;-54
2022/07/16 10:44:44;;;;;;;2.80;2.70;;;30.20;84.70;;;;;;5039989;28;20199;-54
2022/07/16 10:47:12;;;;;;;3.30;3.20;;;30.10;84.20;;;;;;5032953;28;20282;-53
2022/07/16 10:49:41;;;;;;;3.10;2.90;;;30.60;84.40;;;;;;5037959;28;20443;-53
2022/07/16 10:52:10;;;;;;;3.55;3.08;;;30.00;83.80;;;;;;5051958;28;20198;-54
2022/07/16 10:54:40;;;;;;;3.47;3.20;;;30.10;84.50;;;;;;5037405;28;20317;-54
2022/07/16 10:57:08;;;;;;;2.90;2.80;;;29.90;80.60;;;;;;5053072;28;20205;-54
2022/07/16 10:59:37;;;;;;;3.08;2.95;;;29.70;85.60;;;;;;5048025;28;20265;-54
2022/07/16 11:02:07;;;;;;;3.15;3.03;;;29.40;85.10;;;;;;5043406;28;20225;-54
2022/07/16 11:04:37;;;;;;;4.40;3.05;;;29.20;85.10;;;;;;5036471;28;20194;-54
2022/07/16 11:07:08;;;;;;;3.08;2.97;;;29.10;89.60;;;;;;5044248;28;21514;-54
2022/07/16 11:09:37;;;;;;;8.13;4.07;;;28.90;85.70;;;;;;5053380;28;20206;-54
2022/07/16 11:12:12;;;;;;;2.90;2.45;;;28.90;82.20;;;;;;5046794;28;20206;-54
2022/07/16 11:14:41;;;;;;;3.70;3.45;;;28.80;83.90;;;;;;5029146;28;20222;-54
2022/07/16 11:17:08;;;;;;;3.25;3.15;;;28.50;88.20;;;;;;5052972;28;20256;-54
2022/07/16 11:19:37;;;;;;;5.85;3.28;;;28.40;84.00;;;;;;5053379;28;20202;-54
2022/07/16 11:22:04;;;;;;;3.75;3.45;;;28.40;87.30;;;;;;5052004;28;20208;-53
2022/07/16 11:24:32;;;;;;;3.53;2.90;;;28.40;88.50;;;;;;5038981;28;20214;-54
2022/07/16 11:27:00;;;;;;;3.08;2.88;;;28.30;90.50;;;;;;5040916;28;20292;-53
2022/07/16 11:29:30;;;;;;;7.10;2.97;;;28.40;89.00;;;;;;5033153;28;20198;-54
2022/07/16 11:31:58;;;;;;;4.57;4.20;;;28.20;89.30;;;;;;5032261;28;20230;-53
2022/07/16 11:34:26;;;;;;;3.22;3.13;;;27.90;87.30;;;;;;5038419;28;20268;-53
2022/07/16 11:36:57;;;;;;;3.75;3.55;;;27.90;89.60;;;;;;5035366;28;20258;-54
2022/07/16 11:39:27;;;;;;;4.30;3.42;;;27.90;86.90;;;;;;5040762;28;20305;-54
2022/07/16 11:41:55;;;;;;;3.80;3.20;;;27.80;86.00;;;;;;5031960;28;20210;-54
2022/07/16 11:44:24;;;;;;;2.95;2.75;;;27.80;90.40;;;;;;5039234;28;20604;-54
2022/07/16 11:46:54;;;;;;;3.20;3.10;;;27.70;90.60;;;;;;5041429;28;20203;-54
2022/07/16 11:49:29;;;;;;;3.58;3.40;;;27.50;88.00;;;;;;5042133;28;20218;-54
2022/07/16 11:51:58;;;;;;;3.55;3.35;;;27.50;90.20;;;;;;5039922;28;20677;-54
2022/07/16 11:54:26;;;;;;;6.10;3.17;;;27.60;90.30;;;;;;5039963;28;20203;-54
2022/07/16 11:56:54;;;;;;;3.58;3.38;;;27.40;89.10;;;;;;5050201;28;20194;-54
2022/07/16 11:59:25;;;;;;;2.97;2.83;;;27.40;89.90;;;;;;5051837;28;20240;-54
2022/07/16 12:02:02;;;;;;;2.85;2.65;;;27.40;91.50;;;;;;5045395;28;20210;-54
2022/07/16 12:04:37;;;;;;;4.45;3.88;;;27.40;91.10;;;;;;5033106;28;20198;-54
2022/07/16 12:07:05;;;;;;;2.90;2.80;;;27.40;91.40;;;;;;5042924;28;21440;-53
2022/07/16 12:09:34;;;;;;;7.47;4.10;;;27.40;90.90;;;;;;5052325;28;20205;-53
2022/07/16 12:12:04;;;;;;;3.58;3.13;;;27.20;90.70;;;;;;5043780;28;20657;-53
2022/07/16 12:14:52;;;;;;;3.45;3.25;;;27.10;90.80;;;;;;5032666;28;20241;-53
2022/07/16 12:17:27;;;;;;;3.60;3.30;;;27.10;89.70;;;;;;5045016;28;20285;-54
2022/07/16 12:20:06;;;;;;;2.60;2.50;;;27.00;90.20;;;;;;5051902;28;20212;-54
2022/07/16 12:22:54;;;;;;;2.88;2.78;;;27.20;92.40;;;;;;5049788;28;20263;-53
2022/07/16 12:25:34;;;;;;;3.05;2.78;;;27.40;87.10;;;;;;5033441;28;20190;-54
2022/07/16 12:28:03;;;;;;;3.13;3.03;;;27.50;89.20;;;;;;5034616;28;20226;-54
2022/07/16 12:30:32;;;;;;;5.00;3.33;;;27.30;88.20;;;;;;5044939;28;20202;-54
2022/07/16 12:33:01;;;;;;;3.25;3.08;;;27.40;90.30;;;;;;5046711;28;20230;-54
2022/07/16 12:35:39;;;;;;;5.00;2.65;;;27.30;87.50;;;;;;5029827;28;20280;-54
2022/07/16 12:38:07;;;;;;;3.38;3.15;;;27.40;88.60;;;;;;5031183;28;20275;-54
2022/07/16 12:40:34;;;;;;;4.45;3.30;;;27.40;87.50;;;;;;5035396;28;20226;-54
2022/07/16 12:43:01;;;;;;;4.13;3.53;;;27.40;87.00;;;;;;5050217;28;20578;-54
2022/07/16 12:45:29;;;;;;;3.00;2.90;;;27.40;89.20;;;;;;5052275;28;20202;-54
2022/07/16 12:47:56;;;;;;;3.50;3.20;;;27.30;85.70;;;;;;5052251;28;20221;-53
2022/07/16 12:50:25;;;;;;;3.60;3.30;;;27.20;91.20;;;;;;5034043;28;20206;-54
2022/07/16 12:52:52;;;;;;;4.57;3.10;;;27.20;86.40;;;;;;5040202;28;20205;-54
2022/07/16 13:00:48;;;;;;;3.42;2.85;;;27.30;86.60;;;;;;5047250;28;20209;-55
2022/07/16 13:03:15;;;;;;;4.70;3.10;;;27.40;90.00;;;;;;5042130;28;20711;-54
2022/07/16 13:05:43;;;;;;;3.08;2.97;;;27.30;86.80;;;;;;5034879;28;20679;-54
2022/07/16 13:08:10;;;;;;;2.80;2.70;;;27.20;89.00;;;;;;5031263;28;20218;-54
2022/07/16 13:10:38;;;;;;;3.13;2.75;;;27.30;86.90;;;;;;5036844;28;20638;-54
2022/07/16 13:13:06;;;;;;;4.13;3.63;;;27.20;87.90;;;;;;5031993;28;20202;-53
2022/07/16 13:15:33;;;;;;;3.67;2.85;;;27.10;87.80;;;;;;5039355;28;20325;-54